Time;durP1;ratioP1;P1;durP2;ratioP2;P2;SDS_P1;SDS_P2;PMS_P1;PMS_P2;Temp;Humidity;BMP_temperature;BMP_pressure;BME280_temperature;BME280_humidity;BME280_pressure;Samples;Min_cycle;Max_cycle;Signal;HPM_P1;HPM_P2
2023/08/28 00:01:23;;;;;;;0.60;0.60;;;15.30;99.90;;;;;;5021590;28;20270;-57
2023/08/28 00:03:50;;;;;;;0.97;0.50;;;15.30;99.90;;;;;;5021845;28;20203;-58
2023/08/28 00:06:19;;;;;;;0.40;0.40;;;15.30;99.90;;;;;;5022496;28;20207;-57
2023/08/28 00:08:46;;;;;;;0.97;0.40;;;15.20;99.90;;;;;;5022077;28;20202;-57
2023/08/28 00:11:12;;;;;;;1.33;0.40;;;15.10;99.90;;;;;;5026798;28;20272;-57
2023/08/28 00:13:39;;;;;;;0.50;0.50;;;15.10;99.90;;;;;;5024204;28;20204;-57
2023/08/28 00:16:08;;;;;;;0.70;0.70;;;15.10;99.90;;;;;;5028960;28;20223;-57
2023/08/28 00:18:35;;;;;;;0.73;0.47;;;15.10;99.90;;;;;;5017374;28;20771;-58
2023/08/28 00:21:02;;;;;;;0.87;0.40;;;15.10;99.90;;;;;;5022695;28;20254;-57
2023/08/28 00:23:32;;;;;;;1.03;0.90;;;15.10;99.90;;;;;;5018903;28;20310;-57
2023/08/28 00:25:59;;;;;;;0.57;0.57;;;15.10;99.90;;;;;;5014456;28;20203;-57
2023/08/28 00:28:25;;;;;;;0.40;0.40;;;15.10;99.90;;;;;;5014468;28;20751;-58
2023/08/28 00:30:52;;;;;;;0.77;0.40;;;15.10;99.90;;;;;;5013000;28;20663;-58
2023/08/28 00:33:21;;;;;;;1.23;0.73;;;15.10;99.90;;;;;;5013534;28;20207;-58
2023/08/28 00:35:48;;;;;;;0.50;0.50;;;15.10;99.90;;;;;;5014305;28;20207;-58
2023/08/28 00:38:14;;;;;;;0.63;0.43;;;15.00;99.90;;;;;;5014083;28;20292;-58
2023/08/28 00:40:41;;;;;;;0.50;0.50;;;15.00;99.90;;;;;;5021452;28;20226;-58
2023/08/28 00:43:09;;;;;;;1.23;0.47;;;15.00;99.90;;;;;;5010466;28;20329;-57
2023/08/28 00:45:40;;;;;;;0.90;0.70;;;15.00;99.90;;;;;;5025728;28;20277;-57
2023/08/28 00:48:10;;;;;;;1.17;0.70;;;14.90;99.90;;;;;;5033777;28;20592;-57
2023/08/28 00:50:38;;;;;;;2.40;0.60;;;14.90;99.90;;;;;;5018158;28;20234;-58
2023/08/28 00:53:05;;;;;;;0.60;0.60;;;14.90;99.90;;;;;;5024433;28;20195;-58
2023/08/28 00:55:35;;;;;;;1.03;0.60;;;14.90;99.90;;;;;;5029121;28;20229;-57
2023/08/28 00:58:02;;;;;;;0.73;0.73;;;14.90;99.90;;;;;;5025328;28;20229;-57
2023/08/28 01:00:30;;;;;;;0.93;0.67;;;15.00;99.90;;;;;;5031993;28;20242;-57
2023/08/28 01:02:57;;;;;;;0.50;0.50;;;15.00;99.90;;;;;;5024451;28;20572;-57
2023/08/28 01:05:31;;;;;;;1.53;0.40;;;15.00;99.90;;;;;;5028960;28;20575;-58
2023/08/28 01:08:11;;;;;;;0.93;0.57;;;14.90;99.90;;;;;;5025331;28;20199;-58
2023/08/28 01:10:43;;;;;;;0.67;0.50;;;14.80;99.90;;;;;;5024676;28;20234;-58
2023/08/28 01:13:20;;;;;;;1.43;0.60;;;14.80;99.90;;;;;;5017088;28;20195;-57
2023/08/28 01:15:48;;;;;;;0.70;0.70;;;14.70;99.90;;;;;;5033217;28;20256;-57
2023/08/28 01:18:16;;;;;;;1.30;0.53;;;14.70;99.90;;;;;;5023942;28;20214;-56
2023/08/28 01:20:44;;;;;;;4.30;0.80;;;14.60;99.90;;;;;;5015984;28;20782;-57
2023/08/28 01:23:22;;;;;;;0.70;0.70;;;14.70;99.90;;;;;;5024163;28;20199;-57
2023/08/28 01:25:53;;;;;;;0.60;0.60;;;14.70;99.90;;;;;;5033212;28;20206;-57
2023/08/28 01:28:21;;;;;;;0.70;0.70;;;14.70;99.90;;;;;;5033146;28;20321;-57
2023/08/28 01:30:51;;;;;;;0.63;0.63;;;14.60;99.90;;;;;;5019157;28;20741;-58
2023/08/28 01:33:18;;;;;;;0.50;0.50;;;14.70;99.90;;;;;;5015446;28;20206;-57
2023/08/28 01:35:53;;;;;;;0.60;0.60;;;14.80;99.90;;;;;;5016022;28;20286;-57
2023/08/28 01:38:28;;;;;;;0.83;0.70;;;14.80;99.90;;;;;;5013050;28;20273;-57
2023/08/28 01:40:59;;;;;;;0.53;0.53;;;14.80;99.90;;;;;;5014078;28;20226;-57
2023/08/28 01:43:30;;;;;;;1.27;0.57;;;14.80;99.90;;;;;;5016669;28;20285;-57
2023/08/28 01:45:57;;;;;;;0.73;0.73;;;14.80;99.90;;;;;;5020942;28;20290;-57
2023/08/28 01:48:27;;;;;;;1.07;0.43;;;14.80;99.90;;;;;;5020422;28;20218;-57
2023/08/28 01:50:54;;;;;;;0.50;0.50;;;14.70;99.90;;;;;;5014590;28;20255;-57
2023/08/28 01:53:21;;;;;;;0.70;0.50;;;14.70;99.90;;;;;;5023130;28;20198;-57
2023/08/28 01:56:17;;;;;;;1.40;0.60;;;14.70;99.90;;;;;;5017681;28;20203;-56
2023/08/28 01:58:46;;;;;;;0.70;0.70;;;14.80;99.90;;;;;;5019963;28;20643;-57
2023/08/28 02:01:13;;;;;;;1.70;0.60;;;14.80;99.90;;;;;;5012210;28;20717;-57
2023/08/28 02:03:40;;;;;;;0.53;0.53;;;14.90;99.90;;;;;;5011996;28;20203;-57
2023/08/28 02:06:08;;;;;;;1.53;0.90;;;14.80;99.90;;;;;;5012920;28;20203;-57
2023/08/28 02:08:35;;;;;;;2.50;1.90;;;14.80;99.90;;;;;;5012033;28;20199;-57
2023/08/28 02:11:02;;;;;;;0.40;0.40;;;14.70;99.90;;;;;;5023080;28;20793;-57
2023/08/28 02:13:30;;;;;;;2.20;0.97;;;14.70;99.90;;;;;;5031685;28;20202;-57
2023/08/28 02:15:57;;;;;;;1.07;0.60;;;14.70;99.90;;;;;;5032168;28;20669;-56
2023/08/28 02:18:24;;;;;;;2.43;0.90;;;14.70;99.90;;;;;;5023147;28;20219;-57
2023/08/28 02:20:52;;;;;;;1.20;0.80;;;14.70;99.90;;;;;;5021183;28;20226;-57
2023/08/28 02:23:19;;;;;;;1.00;0.87;;;14.70;99.90;;;;;;5024732;28;20738;-57
2023/08/28 02:25:48;;;;;;;0.70;0.60;;;14.70;99.90;;;;;;5032063;28;20203;-57
2023/08/28 02:28:18;;;;;;;1.97;0.93;;;14.60;99.90;;;;;;5022700;28;20199;-57
2023/08/28 02:30:46;;;;;;;0.70;0.70;;;14.50;99.90;;;;;;5028411;28;20229;-57
2023/08/28 02:33:13;;;;;;;0.43;0.43;;;14.50;99.90;;;;;;5014137;28;20289;-57
2023/08/28 02:35:40;;;;;;;0.60;0.60;;;14.50;99.90;;;;;;5020113;28;20245;-57
2023/08/28 02:38:08;;;;;;;1.47;1.37;;;14.50;99.90;;;;;;5031969;28;20269;-56
2023/08/28 02:40:36;;;;;;;1.10;0.70;;;14.50;99.90;;;;;;5031904;28;20309;-57
2023/08/28 02:43:05;;;;;;;0.50;0.47;;;14.50;99.90;;;;;;5023903;28;20616;-57
2023/08/28 02:45:34;;;;;;;1.73;0.80;;;14.40;99.90;;;;;;5015202;28;20206;-57
2023/08/28 02:48:03;;;;;;;0.63;0.63;;;14.40;99.90;;;;;;5008192;28;20299;-57
2023/08/28 02:50:30;;;;;;;0.67;0.67;;;14.30;99.90;;;;;;5017026;28;20778;-57
2023/08/28 02:52:57;;;;;;;0.80;0.80;;;14.30;99.90;;;;;;5012618;28;20558;-58
2023/08/28 02:55:24;;;;;;;0.97;0.70;;;14.30;99.90;;;;;;5017275;28;20241;-57
2023/08/28 02:57:51;;;;;;;1.07;0.60;;;14.20;99.90;;;;;;5019943;28;20220;-56
2023/08/28 03:00:18;;;;;;;0.80;0.40;;;14.10;99.90;;;;;;5023449;28;20214;-57
2023/08/28 03:02:46;;;;;;;1.00;0.80;;;14.10;99.90;;;;;;5024744;28;20241;-56
2023/08/28 03:05:15;;;;;;;1.33;1.03;;;14.10;99.90;;;;;;5023246;28;20202;-57
2023/08/28 03:07:42;;;;;;;1.03;1.00;;;14.10;99.90;;;;;;5031648;28;20195;-57
2023/08/28 03:10:10;;;;;;;0.80;0.80;;;14.00;99.90;;;;;;5026755;28;20237;-56
2023/08/28 03:12:37;;;;;;;1.87;1.77;;;14.00;99.90;;;;;;5019238;28;20293;-56
2023/08/28 03:15:05;;;;;;;3.30;0.90;;;14.00;99.90;;;;;;5020758;28;20244;-57
2023/08/28 03:17:32;;;;;;;1.03;0.60;;;14.00;99.90;;;;;;5035591;28;20256;-57
2023/08/28 03:19:59;;;;;;;6.00;0.90;;;14.00;99.90;;;;;;5035538;28;20276;-57
2023/08/28 03:22:27;;;;;;;0.90;0.90;;;14.00;99.90;;;;;;5031390;28;20289;-57
2023/08/28 03:24:54;;;;;;;1.40;1.00;;;14.00;99.90;;;;;;5016280;28;20565;-57
2023/08/28 03:27:22;;;;;;;2.33;1.00;;;14.00;99.90;;;;;;5031173;28;20264;-57
2023/08/28 03:29:49;;;;;;;0.80;0.80;;;14.10;99.90;;;;;;5035432;28;20222;-57
2023/08/28 03:32:16;;;;;;;1.57;1.47;;;14.00;99.90;;;;;;5032780;28;20259;-58
2023/08/28 03:34:43;;;;;;;0.87;0.80;;;14.00;99.90;;;;;;5023544;28;20669;-57
2023/08/28 03:37:10;;;;;;;1.90;1.27;;;13.90;99.90;;;;;;5024948;28;20257;-56
2023/08/28 03:39:38;;;;;;;0.80;0.80;;;13.90;99.90;;;;;;5030798;28;20233;-57
2023/08/28 03:42:05;;;;;;;1.03;0.73;;;13.80;99.90;;;;;;5034891;28;20268;-57
2023/08/28 03:44:32;;;;;;;2.83;0.90;;;13.90;99.90;;;;;;5022924;28;20202;-56
2023/08/28 03:46:59;;;;;;;1.13;1.03;;;13.90;99.90;;;;;;5033978;28;20665;-56
2023/08/28 03:49:27;;;;;;;1.00;1.00;;;13.90;99.90;;;;;;5025548;28;20618;-57
2023/08/28 03:51:59;;;;;;;1.00;0.93;;;13.80;99.90;;;;;;5017641;28;20290;-56
2023/08/28 03:54:26;;;;;;;1.70;1.60;;;13.90;99.90;;;;;;5020469;28;20225;-57
2023/08/28 03:56:55;;;;;;;1.40;0.90;;;13.90;99.90;;;;;;5015267;28;20199;-56
2023/08/28 03:59:23;;;;;;;1.00;1.00;;;13.90;99.90;;;;;;5019628;28;20692;-57
2023/08/28 04:01:50;;;;;;;2.70;0.90;;;13.90;99.90;;;;;;5027205;28;20604;-57
2023/08/28 04:04:17;;;;;;;0.80;0.73;;;13.80;99.90;;;;;;5019488;28;20199;-56
2023/08/28 04:06:44;;;;;;;3.47;1.00;;;13.80;99.90;;;;;;5008044;28;20241;-57
2023/08/28 04:09:11;;;;;;;0.73;0.73;;;13.80;99.90;;;;;;4999736;28;20247;-57
2023/08/28 04:11:38;;;;;;;0.73;0.67;;;13.80;99.90;;;;;;5044049;23;20230;-56
2023/08/28 04:14:07;;;;;;;3.33;2.07;;;13.80;99.90;;;;;;5030999;28;20278;-56
2023/08/28 04:16:34;;;;;;;3.53;1.13;;;13.70;99.90;;;;;;5016188;28;20298;-56
2023/08/28 04:19:01;;;;;;;1.00;0.80;;;13.70;99.90;;;;;;5034049;28;20224;-55
2023/08/28 04:21:28;;;;;;;1.43;1.00;;;13.70;99.90;;;;;;5037968;28;20225;-56
2023/08/28 04:23:55;;;;;;;1.33;0.80;;;13.60;99.90;;;;;;5028088;28;20629;-55
2023/08/28 04:26:22;;;;;;;1.40;1.00;;;13.60;99.90;;;;;;5033835;28;20197;-56
2023/08/28 04:28:49;;;;;;;0.80;0.80;;;13.60;99.90;;;;;;5033650;28;20263;-56
2023/08/28 04:31:19;;;;;;;2.60;1.00;;;13.60;99.90;;;;;;5033004;28;20279;-58
2023/08/28 04:33:45;;;;;;;1.13;1.13;;;13.60;99.90;;;;;;5032439;28;20209;-55
2023/08/28 04:36:12;;;;;;;1.00;1.00;;;13.60;99.90;;;;;;5033717;28;20210;-55
2023/08/28 04:38:39;;;;;;;1.20;0.70;;;13.60;99.90;;;;;;5033473;28;20757;-56
2023/08/28 04:41:06;;;;;;;5.27;2.40;;;13.60;99.90;;;;;;5031224;28;20284;-56
2023/08/28 04:43:33;;;;;;;1.40;1.20;;;13.70;99.90;;;;;;5032178;28;20251;-56
2023/08/28 04:46:00;;;;;;;1.00;0.90;;;13.70;99.90;;;;;;5033508;28;20203;-56
2023/08/28 04:48:29;;;;;;;0.97;0.90;;;13.70;99.90;;;;;;5033380;28;20229;-56
2023/08/28 04:50:56;;;;;;;1.23;1.00;;;13.70;99.90;;;;;;5032665;28;20229;-55
2023/08/28 04:53:23;;;;;;;0.77;0.77;;;13.70;99.90;;;;;;5031233;28;20209;-56
2023/08/28 04:55:50;;;;;;;1.03;0.90;;;13.70;99.90;;;;;;5032877;28;20222;-56
2023/08/28 04:58:17;;;;;;;1.00;1.00;;;13.70;99.90;;;;;;5032816;28;20247;-56
2023/08/28 05:00:44;;;;;;;1.63;0.87;;;13.70;99.90;;;;;;5033022;28;20261;-56
2023/08/28 05:03:12;;;;;;;1.33;0.80;;;13.70;99.90;;;;;;5031751;28;20203;-56
2023/08/28 05:05:41;;;;;;;1.47;1.10;;;13.80;99.90;;;;;;5032865;28;20742;-56
2023/08/28 05:08:11;;;;;;;1.57;1.57;;;13.80;99.90;;;;;;5033025;28;20271;-56
2023/08/28 05:10:38;;;;;;;1.30;1.20;;;13.70;99.90;;;;;;5032761;28;20310;-56
2023/08/28 05:13:05;;;;;;;1.10;1.10;;;13.80;99.90;;;;;;5031306;28;20231;-53
2023/08/28 05:15:32;;;;;;;2.20;1.60;;;13.70;99.90;;;;;;5032784;28;20202;-53
2023/08/28 05:17:59;;;;;;;2.40;1.40;;;13.70;99.90;;;;;;5032618;28;20202;-53
2023/08/28 05:20:26;;;;;;;1.40;1.40;;;13.70;99.90;;;;;;5032631;28;20245;-54
2023/08/28 05:22:54;;;;;;;1.60;1.50;;;13.80;99.90;;;;;;5030916;28;20320;-53
2023/08/28 05:25:21;;;;;;;1.80;1.57;;;13.90;99.90;;;;;;5032177;28;20199;-53
2023/08/28 05:27:48;;;;;;;3.10;1.80;;;13.90;99.90;;;;;;5032574;28;20256;-54
2023/08/28 05:30:15;;;;;;;2.03;1.93;;;13.90;99.90;;;;;;5032480;28;20203;-53
2023/08/28 05:32:42;;;;;;;4.90;1.90;;;13.90;99.90;;;;;;5022805;28;20583;-54
2023/08/28 05:35:09;;;;;;;1.73;1.73;;;13.90;99.90;;;;;;5031856;28;20239;-53
2023/08/28 05:37:36;;;;;;;2.10;1.20;;;13.90;99.90;;;;;;5032333;28;20197;-53
2023/08/28 05:40:06;;;;;;;1.60;1.50;;;13.90;99.90;;;;;;5029032;28;20231;-53
2023/08/28 05:42:32;;;;;;;1.70;1.63;;;13.90;99.90;;;;;;5025916;28;20667;-53
2023/08/28 05:44:59;;;;;;;3.50;3.27;;;13.90;99.90;;;;;;5026446;28;20257;-53
2023/08/28 05:47:26;;;;;;;7.23;6.63;;;13.90;99.90;;;;;;5031860;28;20190;-54
2023/08/28 05:49:53;;;;;;;8.60;7.90;;;13.90;99.90;;;;;;5032298;28;20562;-53
2023/08/28 05:52:20;;;;;;;3.90;3.67;;;13.90;99.90;;;;;;5029435;28;20260;-54
2023/08/28 05:54:48;;;;;;;1.90;1.80;;;13.90;99.90;;;;;;5031704;28;20264;-53
2023/08/28 05:57:18;;;;;;;2.57;2.20;;;13.90;99.90;;;;;;5031895;28;20754;-54
2023/08/28 05:59:45;;;;;;;3.23;3.00;;;13.90;99.90;;;;;;5029597;28;20305;-53
2023/08/28 06:02:13;;;;;;;8.77;7.97;;;13.90;99.90;;;;;;5030218;28;20223;-54
2023/08/28 06:04:40;;;;;;;6.40;5.90;;;13.90;99.90;;;;;;5031450;28;20201;-53
2023/08/28 06:07:07;;;;;;;3.70;3.23;;;14.00;99.90;;;;;;5031782;28;20699;-54
2023/08/28 06:09:34;;;;;;;3.60;2.13;;;14.00;99.90;;;;;;5031723;28;20195;-54
2023/08/28 06:12:01;;;;;;;2.40;2.20;;;14.00;99.90;;;;;;5027526;28;20291;-54
2023/08/28 06:14:29;;;;;;;2.57;2.33;;;14.00;99.90;;;;;;5019309;28;20210;-53
2023/08/28 06:16:56;;;;;;;2.60;1.90;;;14.00;99.90;;;;;;5028610;28;20202;-53
2023/08/28 06:19:23;;;;;;;2.17;1.83;;;14.00;99.90;;;;;;5031437;28;20217;-53
2023/08/28 06:21:50;;;;;;;1.90;1.80;;;14.00;99.90;;;;;;5028558;28;20595;-53
2023/08/28 06:24:17;;;;;;;1.40;1.40;;;14.10;99.90;;;;;;5019172;28;20273;-53
2023/08/28 06:26:44;;;;;;;3.17;1.80;;;14.10;99.90;;;;;;5024481;28;20204;-53
2023/08/28 06:29:11;;;;;;;1.70;1.60;;;14.00;99.90;;;;;;5017994;28;20261;-53
2023/08/28 06:31:40;;;;;;;2.23;2.13;;;14.00;99.90;;;;;;5023691;28;20268;-52
2023/08/28 06:34:07;;;;;;;1.50;1.50;;;14.00;99.90;;;;;;5030427;28;20198;-53
2023/08/28 06:36:34;;;;;;;1.30;1.20;;;14.00;99.90;;;;;;5024475;28;20268;-53
2023/08/28 06:39:02;;;;;;;1.60;1.50;;;14.00;99.90;;;;;;5030177;28;20213;-53
2023/08/28 06:41:29;;;;;;;3.70;1.50;;;14.10;99.90;;;;;;5029630;28;20673;-54
2023/08/28 06:43:56;;;;;;;2.90;1.90;;;14.10;99.90;;;;;;5030481;28;20199;-53
2023/08/28 06:46:23;;;;;;;2.67;1.23;;;14.20;99.90;;;;;;5032223;28;20247;-54
2023/08/28 06:48:52;;;;;;;1.63;1.40;;;14.20;99.90;;;;;;5030219;28;20722;-53
2023/08/28 06:51:20;;;;;;;1.30;1.20;;;14.10;99.90;;;;;;5027386;28;20599;-53
2023/08/28 06:53:48;;;;;;;1.70;1.53;;;14.10;99.90;;;;;;5028581;28;20191;-53
2023/08/28 06:56:15;;;;;;;1.47;1.47;;;14.10;99.90;;;;;;5031190;28;20187;-53
2023/08/28 06:58:42;;;;;;;1.43;1.27;;;14.10;99.90;;;;;;5030756;28;20202;-53
2023/08/28 07:01:10;;;;;;;1.90;1.70;;;14.00;99.90;;;;;;5030226;28;20268;-54
2023/08/28 07:03:37;;;;;;;3.47;1.70;;;14.00;99.90;;;;;;5030443;28;20248;-53
2023/08/28 07:06:05;;;;;;;1.53;1.20;;;14.00;99.90;;;;;;5030107;28;20202;-53
2023/08/28 07:08:32;;;;;;;1.80;1.33;;;13.90;99.90;;;;;;5030690;28;20209;-54
2023/08/28 07:10:59;;;;;;;1.63;1.53;;;13.90;99.90;;;;;;5030809;28;20238;-53
2023/08/28 07:13:27;;;;;;;1.30;1.30;;;13.90;99.90;;;;;;5030123;28;20331;-53
2023/08/28 07:15:53;;;;;;;2.20;2.10;;;13.90;99.90;;;;;;5030901;28;20254;-53
2023/08/28 07:18:21;;;;;;;1.57;1.57;;;13.90;99.90;;;;;;5030446;28;20201;-54
2023/08/28 07:20:48;;;;;;;2.43;1.20;;;13.90;99.90;;;;;;5030204;28;20305;-54
2023/08/28 07:23:18;;;;;;;1.20;1.10;;;13.90;99.90;;;;;;5030174;28;20264;-54
2023/08/28 07:25:45;;;;;;;1.50;1.40;;;13.90;99.90;;;;;;5029636;28;20286;-53
2023/08/28 07:28:15;;;;;;;3.70;1.27;;;13.90;99.90;;;;;;5029550;28;20205;-54
2023/08/28 07:30:43;;;;;;;1.83;1.30;;;13.90;99.90;;;;;;5018444;28;20697;-54
2023/08/28 07:33:10;;;;;;;1.30;1.20;;;14.00;99.90;;;;;;5010442;28;20302;-54
2023/08/28 07:35:38;;;;;;;1.93;1.50;;;14.00;99.90;;;;;;5030118;28;20294;-54
2023/08/28 07:38:06;;;;;;;2.30;1.80;;;14.00;99.90;;;;;;5023656;28;20241;-54
2023/08/28 07:40:35;;;;;;;2.20;1.73;;;14.10;99.90;;;;;;5029722;28;20233;-55
2023/08/28 07:43:03;;;;;;;2.00;1.10;;;14.10;99.90;;;;;;5030145;28;20300;-55
2023/08/28 07:45:31;;;;;;;1.43;1.43;;;14.10;99.90;;;;;;5030519;28;20587;-54
2023/08/28 07:47:59;;;;;;;1.43;1.37;;;14.10;99.90;;;;;;5030888;28;20321;-54
2023/08/28 07:50:28;;;;;;;2.13;1.50;;;14.10;99.90;;;;;;5030445;28;20222;-54
2023/08/28 07:52:55;;;;;;;1.13;1.00;;;14.10;99.90;;;;;;5030112;28;20213;-54
2023/08/28 07:55:22;;;;;;;1.93;1.00;;;14.10;99.90;;;;;;5030531;28;20626;-55
2023/08/28 07:57:50;;;;;;;1.47;1.37;;;14.00;99.90;;;;;;5028865;28;20264;-53
2023/08/28 08:00:20;;;;;;;1.10;1.10;;;14.00;99.90;;;;;;5034947;28;20594;-55
2023/08/28 08:02:48;;;;;;;1.47;1.03;;;14.10;99.90;;;;;;5046426;28;20202;-54
2023/08/28 08:05:15;;;;;;;0.97;0.97;;;14.10;99.90;;;;;;5034134;28;20680;-54
2023/08/28 08:07:42;;;;;;;1.10;1.10;;;14.10;99.90;;;;;;5033293;28;20207;-55
2023/08/28 08:10:10;;;;;;;1.50;1.50;;;14.30;99.90;;;;;;5033368;28;20273;-55
2023/08/28 08:12:39;;;;;;;1.30;1.20;;;14.40;99.90;;;;;;5033421;28;20400;-54
2023/08/28 08:15:08;;;;;;;1.10;1.10;;;14.50;99.90;;;;;;5029116;28;20677;-55
2023/08/28 08:17:37;;;;;;;1.77;1.20;;;14.60;99.90;;;;;;5030206;28;20336;-54
2023/08/28 08:20:09;;;;;;;1.33;1.33;;;14.60;99.90;;;;;;5029663;28;20210;-54
2023/08/28 08:22:37;;;;;;;1.85;1.75;;;14.60;99.90;;;;;;5031905;28;20441;-55
2023/08/28 08:25:05;;;;;;;1.63;1.10;;;14.60;99.90;;;;;;5033796;28;20234;-53
2023/08/28 08:27:32;;;;;;;1.33;1.23;;;14.60;99.90;;;;;;5033263;28;20294;-55
2023/08/28 08:29:59;;;;;;;0.80;0.80;;;14.50;99.90;;;;;;5032515;28;20257;-53
2023/08/28 08:32:28;;;;;;;1.50;1.40;;;14.50;99.90;;;;;;5032406;28;20944;-55
2023/08/28 08:34:58;;;;;;;2.43;1.20;;;14.60;99.90;;;;;;5030251;28;20275;-58
2023/08/28 08:37:29;;;;;;;1.00;1.00;;;14.70;99.90;;;;;;5032157;28;20293;-57
2023/08/28 08:39:56;;;;;;;0.90;0.90;;;14.70;99.90;;;;;;5033266;28;20300;-57
2023/08/28 08:42:23;;;;;;;0.77;0.70;;;14.80;99.90;;;;;;5020777;28;20753;-58
2023/08/28 08:44:50;;;;;;;1.00;1.00;;;14.90;99.90;;;;;;5013715;28;20252;-59
2023/08/28 08:47:17;;;;;;;0.80;0.80;;;15.10;99.90;;;;;;5023329;28;20572;-58
2023/08/28 08:49:51;;;;;;;1.00;1.00;;;15.10;99.90;;;;;;5028046;28;20210;-58
2023/08/28 08:52:21;;;;;;;1.10;1.00;;;15.00;99.90;;;;;;5021863;28;20226;-58
2023/08/28 08:54:54;;;;;;;1.07;1.07;;;14.90;99.90;;;;;;5028252;28;20201;-56
2023/08/28 08:57:31;;;;;;;0.70;0.70;;;14.80;99.90;;;;;;5029900;28;20332;-56
2023/08/28 08:59:58;;;;;;;0.73;0.73;;;14.90;99.90;;;;;;5028029;28;20584;-58
2023/08/28 09:02:26;;;;;;;0.90;0.90;;;14.80;99.90;;;;;;5027895;28;20680;-60
2023/08/28 09:04:56;;;;;;;2.70;1.17;;;14.60;99.90;;;;;;5028234;28;20293;-54
2023/08/28 09:07:24;;;;;;;0.80;0.80;;;14.60;99.90;;;;;;5021200;28;20619;-54
2023/08/28 09:09:52;;;;;;;0.97;0.97;;;14.60;99.90;;;;;;5024866;28;20661;-54
2023/08/28 09:12:19;;;;;;;0.80;0.80;;;14.50;99.90;;;;;;5024321;28;21018;-53
2023/08/28 09:14:47;;;;;;;1.00;0.93;;;14.50;99.90;;;;;;5028148;28;20280;-58
2023/08/28 09:17:14;;;;;;;3.03;0.90;;;14.50;99.90;;;;;;5023525;28;20218;-54
2023/08/28 09:19:42;;;;;;;2.13;0.90;;;14.60;99.90;;;;;;5020147;28;20285;-54
2023/08/28 09:22:11;;;;;;;0.60;0.60;;;14.60;99.90;;;;;;5025171;28;20743;-53
2023/08/28 09:24:42;;;;;;;6.73;1.47;;;14.50;99.90;;;;;;5024029;28;20206;-55
2023/08/28 09:27:13;;;;;;;0.90;0.90;;;14.50;99.90;;;;;;5022865;28;20285;-54
2023/08/28 09:29:40;;;;;;;1.30;0.80;;;14.50;99.90;;;;;;5023006;28;20234;-55
2023/08/28 09:32:07;;;;;;;1.07;1.07;;;14.50;99.90;;;;;;5017991;28;20232;-53
2023/08/28 09:34:39;;;;;;;1.63;0.80;;;14.50;99.90;;;;;;5020156;28;20207;-54
2023/08/28 09:37:10;;;;;;;0.60;0.60;;;14.50;99.90;;;;;;5021093;28;20581;-54
2023/08/28 09:39:41;;;;;;;0.80;0.63;;;14.40;99.90;;;;;;5019447;28;20487;-55
2023/08/28 09:42:10;;;;;;;0.80;0.80;;;14.50;99.90;;;;;;5021321;28;20320;-54
2023/08/28 09:44:37;;;;;;;1.10;0.63;;;14.40;99.90;;;;;;5023137;28;20236;-54
2023/08/28 09:47:05;;;;;;;1.70;0.60;;;14.40;99.90;;;;;;5021921;28;20208;-53
2023/08/28 09:49:41;;;;;;;0.50;0.50;;;14.40;99.90;;;;;;5022384;28;20221;-55
2023/08/28 09:52:11;;;;;;;0.67;0.63;;;14.40;99.90;;;;;;5020235;28;20280;-54
2023/08/28 09:54:38;;;;;;;0.90;0.50;;;14.50;99.90;;;;;;5028979;28;20198;-54
2023/08/28 09:57:15;;;;;;;0.63;0.47;;;14.40;99.90;;;;;;5027437;28;20248;-54
2023/08/28 09:59:42;;;;;;;0.60;0.60;;;14.40;99.90;;;;;;5027365;28;20210;-54
2023/08/28 10:02:13;;;;;;;0.50;0.50;;;14.40;99.90;;;;;;5027713;28;20289;-54
2023/08/28 10:04:41;;;;;;;0.53;0.53;;;14.50;99.90;;;;;;5030827;28;20359;-54
2023/08/28 10:07:08;;;;;;;0.60;0.60;;;14.60;99.90;;;;;;5029678;28;20253;-58
2023/08/28 10:09:39;;;;;;;0.50;0.50;;;14.80;99.90;;;;;;5029035;28;20226;-60
2023/08/28 10:12:08;;;;;;;0.73;0.60;;;14.80;99.90;;;;;;5050238;23;20608;-61
2023/08/28 10:14:36;;;;;;;0.90;0.90;;;14.90;99.90;;;;;;5006958;28;20207;-61
2023/08/28 10:17:06;;;;;;;1.00;0.60;;;14.90;99.90;;;;;;5010666;28;20226;-62
2023/08/28 10:19:38;;;;;;;1.23;0.70;;;14.80;99.90;;;;;;5010948;28;20261;-62
2023/08/28 10:22:08;;;;;;;0.80;0.80;;;14.80;99.90;;;;;;5008345;28;20226;-63
2023/08/28 10:24:38;;;;;;;0.70;0.70;;;14.90;99.90;;;;;;5010380;28;20628;-64
2023/08/28 10:27:05;;;;;;;0.43;0.43;;;14.90;99.90;;;;;;5010522;28;20249;-64
2023/08/28 10:29:34;;;;;;;0.97;0.70;;;14.90;99.90;;;;;;5004142;28;20257;-65
2023/08/28 10:32:07;;;;;;;2.47;0.90;;;14.80;99.90;;;;;;5002197;28;20231;-65
2023/08/28 10:34:35;;;;;;;0.73;0.73;;;14.60;99.90;;;;;;5002652;28;20733;-64
2023/08/28 10:37:04;;;;;;;0.77;0.77;;;14.50;99.90;;;;;;5003269;28;20686;-65
2023/08/28 10:39:31;;;;;;;0.70;0.70;;;14.50;99.90;;;;;;5002195;28;20246;-64
2023/08/28 10:42:00;;;;;;;1.03;1.03;;;14.50;99.90;;;;;;5003383;28;20221;-53
2023/08/28 10:44:28;;;;;;;0.63;0.60;;;14.40;99.90;;;;;;5005612;28;20678;-53
2023/08/28 10:46:56;;;;;;;0.50;0.50;;;14.40;99.90;;;;;;5003768;28;20265;-53
2023/08/28 10:49:23;;;;;;;1.03;0.90;;;14.30;99.90;;;;;;5003206;28;20732;-53
2023/08/28 10:52:02;;;;;;;0.60;0.60;;;14.30;99.90;;;;;;5002042;28;20648;-53
2023/08/28 10:54:37;;;;;;;0.70;0.50;;;14.30;99.90;;;;;;5002157;28;20211;-54
2023/08/28 10:57:10;;;;;;;0.50;0.50;;;14.20;99.90;;;;;;5003141;28;20233;-53
2023/08/28 10:59:44;;;;;;;0.77;0.77;;;14.10;99.90;;;;;;5001494;28;20210;-53
2023/08/28 11:02:11;;;;;;;0.60;0.57;;;14.00;99.90;;;;;;5002243;28;20246;-54
2023/08/28 11:04:39;;;;;;;1.33;0.70;;;13.90;99.90;;;;;;5004574;28;20272;-53
2023/08/28 11:07:08;;;;;;;0.93;0.93;;;13.90;99.90;;;;;;5007306;28;20199;-53
2023/08/28 11:09:39;;;;;;;0.97;0.80;;;13.80;99.90;;;;;;5002460;28;20294;-53
2023/08/28 11:12:27;;;;;;;2.00;1.17;;;13.80;99.90;;;;;;5002076;28;20611;-54
2023/08/28 11:15:02;;;;;;;0.50;0.50;;;13.80;99.90;;;;;;5003216;28;20283;-58
2023/08/28 11:17:32;;;;;;;0.57;0.57;;;13.80;99.90;;;;;;5001775;28;20697;-60
2023/08/28 11:20:12;;;;;;;0.80;0.80;;;13.80;99.90;;;;;;5002279;28;20216;-60
2023/08/28 11:22:40;;;;;;;1.00;1.00;;;13.70;99.90;;;;;;5006090;28;20245;-60
2023/08/28 11:25:09;;;;;;;0.67;0.67;;;13.70;99.90;;;;;;5008174;28;20209;-60
2023/08/28 11:27:45;;;;;;;1.10;1.10;;;13.70;99.90;;;;;;5010941;28;20318;-59
2023/08/28 11:30:15;;;;;;;0.80;0.80;;;13.60;99.90;;;;;;5010954;28;20543;-59
2023/08/28 11:32:43;;;;;;;2.17;0.80;;;13.60;99.90;;;;;;5010344;28;20227;-62
2023/08/28 11:35:13;;;;;;;0.73;0.73;;;13.60;99.90;;;;;;5014055;28;20263;-62
2023/08/28 11:37:42;;;;;;;0.60;0.60;;;13.60;99.90;;;;;;5014162;28;20255;-63
2023/08/28 11:40:11;;;;;;;1.63;1.17;;;13.60;99.90;;;;;;5014636;28;20199;-63
2023/08/28 11:42:39;;;;;;;0.77;0.77;;;13.70;99.90;;;;;;5013062;28;20281;-57
2023/08/28 11:45:08;;;;;;;0.70;0.70;;;13.70;99.90;;;;;;5013025;28;20342;-59
2023/08/28 11:47:36;;;;;;;0.83;0.83;;;13.70;99.90;;;;;;5013363;28;20308;-59
2023/08/28 11:50:05;;;;;;;1.33;1.00;;;13.70;99.90;;;;;;5013724;28;20210;-59
2023/08/28 11:52:32;;;;;;;2.37;0.90;;;13.70;99.90;;;;;;5012687;28;20305;-60
2023/08/28 11:55:03;;;;;;;1.07;1.07;;;13.60;99.90;;;;;;5010795;28;20244;-59
2023/08/28 11:57:31;;;;;;;1.23;1.23;;;13.50;99.90;;;;;;5008505;28;20234;-61
2023/08/28 12:00:00;;;;;;;2.50;1.20;;;13.60;99.90;;;;;;5005723;28;20339;-58
2023/08/28 12:02:30;;;;;;;1.00;0.90;;;13.60;99.90;;;;;;5005547;28;20243;-60
2023/08/28 12:04:57;;;;;;;1.03;1.03;;;13.60;99.90;;;;;;5006306;28;20205;-59
2023/08/28 12:07:27;;;;;;;0.70;0.70;;;13.70;99.90;;;;;;5010185;28;20268;-61
2023/08/28 12:09:56;;;;;;;1.83;1.73;;;13.70;99.90;;;;;;5006521;28;20207;-61
2023/08/28 12:12:24;;;;;;;1.13;1.13;;;13.70;99.90;;;;;;5003301;28;20234;-61
2023/08/28 12:14:51;;;;;;;1.07;1.07;;;13.70;99.90;;;;;;5005918;28;20206;-60
2023/08/28 12:17:20;;;;;;;1.17;1.17;;;13.70;99.90;;;;;;5005583;28;20199;-60
2023/08/28 12:19:50;;;;;;;0.83;0.83;;;13.70;99.90;;;;;;5006020;28;20211;-59
2023/08/28 12:22:20;;;;;;;1.27;1.27;;;13.70;99.90;;;;;;5000689;28;20280;-58
2023/08/28 12:24:48;;;;;;;1.77;1.10;;;13.70;99.90;;;;;;5005598;28;20269;-59
2023/08/28 12:27:16;;;;;;;1.07;0.97;;;13.70;99.90;;;;;;5005616;28;20200;-60
2023/08/28 12:29:44;;;;;;;1.10;1.10;;;13.70;99.90;;;;;;5005461;28;20665;-60
2023/08/28 12:32:17;;;;;;;1.27;1.27;;;13.80;99.90;;;;;;5008329;28;20281;-59
2023/08/28 12:34:45;;;;;;;1.07;1.07;;;13.80;99.90;;;;;;5007066;28;20216;-59
2023/08/28 12:37:15;;;;;;;1.43;1.33;;;13.70;99.90;;;;;;5007697;28;20338;-61
2023/08/28 12:39:46;;;;;;;1.90;1.47;;;13.70;99.90;;;;;;5002670;28;20241;-60
2023/08/28 12:42:14;;;;;;;2.53;1.97;;;13.70;99.90;;;;;;5005212;28;20227;-59
2023/08/28 12:44:42;;;;;;;1.37;1.30;;;13.70;99.90;;;;;;5002969;28;20257;-60
2023/08/28 12:47:10;;;;;;;1.77;1.67;;;13.70;99.90;;;;;;5005626;28;20203;-61
2023/08/28 12:49:37;;;;;;;1.20;1.03;;;13.70;99.90;;;;;;5005231;28;20203;-62
2023/08/28 12:52:04;;;;;;;1.77;1.30;;;13.70;99.90;;;;;;5005246;28;20267;-60
2023/08/28 12:54:32;;;;;;;1.57;1.47;;;13.70;99.90;;;;;;5012925;28;20350;-63